Time;durP1;ratioP1;P1;durP2;ratioP2;P2;SDS_P1;SDS_P2;PMS_P1;PMS_P2;Temp;Humidity;BMP_temperature;BMP_pressure;BME280_temperature;BME280_humidity;BME280_pressure;Samples;Min_cycle;Max_cycle;Signal;HPM_P1;HPM_P2
2022/04/12 00:01:09;;;;;;;5.88;3.33;;;;;;;;;;5129168;28;20653;-69
2022/04/12 00:03:38;;;;;;;8.07;3.72;;;;;;;;;;5112987;28;20655;-69
2022/04/12 00:06:06;;;;;;;11.35;3.85;;;;;;;;;;5124840;27;20441;-69
2022/04/12 00:08:35;;;;;;;11.55;3.95;;;;;;;;;;5116068;28;20474;-69
2022/04/12 00:11:05;;;;;;;7.10;3.70;;;;;;;;;;5122645;28;20043;-69
2022/04/12 00:13:34;;;;;;;7.95;3.78;;;;;;;;;;5121060;28;20133;-69
2022/04/12 00:16:05;;;;;;;8.05;3.22;;;;;;;;;;5129035;28;20129;-69
2022/04/12 00:21:21;;;;;;;8.57;4.10;;;;;;;;;;5123493;28;20130;-69
2022/04/12 00:23:49;;;;;;;6.43;3.15;;;;;;;;;;5119763;28;20096;-69
2022/04/12 00:26:17;;;;;;;8.18;3.92;;;;;;;;;;5129165;28;20402;-69
2022/04/12 00:28:45;;;;;;;7.70;3.67;;;;;;;;;;5125276;28;20130;-69
2022/04/12 00:31:14;;;;;;;5.68;3.47;;;;;;;;;;5125242;28;20102;-70
2022/04/12 00:33:43;;;;;;;6.60;3.45;;;;;;;;;;5108381;28;20119;-69
2022/04/12 00:36:12;;;;;;;7.68;4.00;;;;;;;;;;5118213;28;20108;-70
2022/04/12 00:38:40;;;;;;;9.65;4.05;;;;;;;;;;5122179;28;20055;-69
2022/04/12 00:41:11;;;;;;;7.82;3.72;;;;;;;;;;5112586;28;20534;-69
2022/04/12 00:43:40;;;;;;;8.23;3.75;;;;;;;;;;5113719;28;20048;-70
2022/04/12 00:46:08;;;;;;;10.55;3.95;;;;;;;;;;5130248;27;20039;-69
2022/04/12 00:48:36;;;;;;;10.20;4.20;;;;;;;;;;5117581;27;20039;-69
2022/04/12 00:51:09;;;;;;;9.95;4.50;;;;;;;;;;5130180;27;20157;-69
2022/04/12 00:53:38;;;;;;;8.80;4.25;;;;;;;;;;5128743;27;20080;-70
2022/04/12 00:56:07;;;;;;;9.30;4.15;;;;;;;;;;5114373;27;20043;-70
2022/04/12 00:58:35;;;;;;;14.15;4.35;;;;;;;;;;5112441;27;20051;-70
2022/04/12 01:01:06;;;;;;;6.30;3.80;;;;;;;;;;5112661;28;20058;-70
2022/04/12 01:03:35;;;;;;;9.20;4.50;;;;;;;;;;5114522;27;20049;-69
2022/04/12 01:06:06;;;;;;;8.80;4.07;;;;;;;;;;5119625;27;20122;-69
2022/04/12 01:08:36;;;;;;;8.50;4.05;;;;;;;;;;5120273;27;20057;-70
2022/04/12 01:11:07;;;;;;;7.93;4.03;;;;;;;;;;5132051;27;20047;-70
2022/04/12 01:13:36;;;;;;;8.27;3.63;;;;;;;;;;5129534;27;20417;-69
2022/04/12 01:16:08;;;;;;;6.50;3.97;;;;;;;;;;5130425;27;20134;-69
2022/04/12 01:18:37;;;;;;;6.28;3.10;;;;;;;;;;5114205;27;20051;-69
2022/04/12 01:21:06;;;;;;;10.18;3.85;;;;;;;;;;5130495;27;20054;-69
2022/04/12 01:23:41;;;;;;;8.40;3.53;;;;;;;;;;5129378;27;20057;-69
2022/04/12 01:26:12;;;;;;;8.13;3.53;;;;;;;;;;5125462;27;20141;-70
2022/04/12 01:28:40;;;;;;;9.38;4.13;;;;;;;;;;5110433;28;20554;-69
2022/04/12 01:31:08;;;;;;;8.13;3.45;;;;;;;;;;5113029;27;20054;-69
2022/04/12 01:33:37;;;;;;;8.70;4.10;;;;;;;;;;5118663;27;20100;-69
2022/04/12 01:36:08;;;;;;;9.75;3.95;;;;;;;;;;5114152;27;20051;-69
2022/04/12 01:38:36;;;;;;;6.97;3.53;;;;;;;;;;5114166;27;20047;-70
2022/04/12 01:41:07;;;;;;;8.88;4.40;;;;;;;;;;5108914;27;20130;-70
2022/04/12 01:43:38;;;;;;;10.05;4.53;;;;;;;;;;5121199;27;20081;-69
2022/04/12 01:46:06;;;;;;;14.90;4.82;;;;;;;;;;5114902;27;20047;-69
2022/04/12 01:48:34;;;;;;;14.50;4.25;;;;;;;;;;5118095;27;20490;-69
2022/04/12 01:51:05;;;;;;;11.98;4.35;;;;;;;;;;5121387;27;20106;-69
2022/04/12 01:53:34;;;;;;;13.20;4.57;;;;;;;;;;5125006;27;20046;-69
2022/04/12 01:56:06;;;;;;;9.77;4.10;;;;;;;;;;5127916;27;20058;-69
2022/04/12 01:58:36;;;;;;;7.85;4.38;;;;;;;;;;5127204;27;20450;-69
2022/04/12 02:01:08;;;;;;;14.00;4.28;;;;;;;;;;5130929;27;20051;-70
2022/04/12 02:03:37;;;;;;;7.43;3.92;;;;;;;;;;5126246;27;20796;-70
2022/04/12 02:06:08;;;;;;;8.63;3.83;;;;;;;;;;5126023;27;20071;-70
2022/04/12 02:08:38;;;;;;;8.45;4.20;;;;;;;;;;5120033;27;20093;-69
2022/04/12 02:11:07;;;;;;;10.07;3.70;;;;;;;;;;5123998;27;20400;-69
2022/04/12 02:13:35;;;;;;;8.90;4.90;;;;;;;;;;5130545;27;20047;-69
2022/04/12 02:16:08;;;;;;;11.82;4.75;;;;;;;;;;5126897;27;20092;-69
2022/04/12 02:18:37;;;;;;;6.78;4.05;;;;;;;;;;5117385;27;21464;-69
2022/04/12 02:21:08;;;;;;;6.72;3.58;;;;;;;;;;5122634;27;20542;-69
2022/04/12 02:23:37;;;;;;;6.78;3.80;;;;;;;;;;5122668;27;20104;-69
2022/04/12 02:26:08;;;;;;;9.27;4.13;;;;;;;;;;5123179;27;20083;-69
2022/04/12 02:28:36;;;;;;;7.63;4.07;;;;;;;;;;5128955;27;20134;-70
2022/04/12 02:31:08;;;;;;;11.20;4.43;;;;;;;;;;5109711;28;20475;-69
2022/04/12 02:33:37;;;;;;;8.13;4.55;;;;;;;;;;5122091;27;20083;-69
2022/04/12 02:36:06;;;;;;;7.13;4.10;;;;;;;;;;5114399;27;20126;-69
2022/04/12 02:38:34;;;;;;;10.75;4.75;;;;;;;;;;5127835;27;20098;-70
2022/04/12 02:41:05;;;;;;;6.10;3.58;;;;;;;;;;5112729;27;20075;-69
2022/04/12 02:43:34;;;;;;;8.55;3.92;;;;;;;;;;5128295;27;20635;-70
2022/04/12 02:46:04;;;;;;;8.55;3.88;;;;;;;;;;5129196;27;20039;-69
2022/04/12 02:48:34;;;;;;;10.50;3.97;;;;;;;;;;5127149;27;20043;-69
2022/04/12 02:51:05;;;;;;;5.72;3.53;;;;;;;;;;5111716;27;20539;-69
2022/04/12 02:53:34;;;;;;;10.07;4.43;;;;;;;;;;5109467;28;20044;-69
2022/04/12 02:56:04;;;;;;;7.00;4.05;;;;;;;;;;5113737;27;20166;-69
2022/04/12 02:58:33;;;;;;;7.25;3.83;;;;;;;;;;5109969;27;20074;-69
2022/04/12 03:01:01;;;;;;;9.40;4.40;;;;;;;;;;5120016;27;20090;-70
2022/04/12 03:03:31;;;;;;;8.88;4.47;;;;;;;;;;5127249;27;20039;-69
2022/04/12 03:06:01;;;;;;;7.03;4.05;;;;;;;;;;5129537;27;20585;-69
2022/04/12 03:08:33;;;;;;;8.32;4.30;;;;;;;;;;5120434;27;20049;-70
2022/04/12 03:11:04;;;;;;;10.55;4.18;;;;;;;;;;5113215;27;20413;-69
2022/04/12 03:13:32;;;;;;;9.05;4.40;;;;;;;;;;5122355;27;20057;-69
2022/04/12 03:16:01;;;;;;;11.77;4.82;;;;;;;;;;5127594;27;20043;-70
2022/04/12 03:18:31;;;;;;;9.07;4.57;;;;;;;;;;5108575;28;20044;-69
2022/04/12 03:20:59;;;;;;;9.40;3.75;;;;;;;;;;5124165;27;20040;-70
2022/04/12 03:23:29;;;;;;;6.18;3.58;;;;;;;;;;5109136;28;20135;-69
2022/04/12 03:25:57;;;;;;;10.13;4.32;;;;;;;;;;5118043;27;20061;-69
2022/04/12 03:28:25;;;;;;;8.15;4.22;;;;;;;;;;5109141;28;20078;-69
2022/04/12 03:30:53;;;;;;;10.68;4.22;;;;;;;;;;5112732;27;20402;-69
2022/04/12 03:33:22;;;;;;;6.63;3.90;;;;;;;;;;5113981;27;20044;-69
2022/04/12 03:35:50;;;;;;;10.10;4.07;;;;;;;;;;5110267;28;20154;-69
2022/04/12 03:38:18;;;;;;;8.40;4.22;;;;;;;;;;5119705;27;20146;-69
2022/04/12 03:40:48;;;;;;;7.80;4.10;;;;;;;;;;5125721;27;20085;-69
2022/04/12 03:43:16;;;;;;;9.35;4.47;;;;;;;;;;5114105;28;20043;-69
2022/04/12 03:45:44;;;;;;;10.68;4.78;;;;;;;;;;5118597;27;20138;-69
2022/04/12 03:48:13;;;;;;;9.10;4.32;;;;;;;;;;5110082;28;20082;-69
2022/04/12 03:50:41;;;;;;;8.95;4.10;;;;;;;;;;5112129;28;20112;-69
2022/04/12 03:53:09;;;;;;;8.10;4.07;;;;;;;;;;5121648;28;20131;-69
2022/04/12 03:55:39;;;;;;;8.60;3.83;;;;;;;;;;5121519;28;20146;-69
2022/04/12 03:58:09;;;;;;;9.40;4.20;;;;;;;;;;5116326;28;20039;-69
2022/04/12 04:00:38;;;;;;;9.60;4.03;;;;;;;;;;5122829;28;20055;-69
2022/04/12 04:03:06;;;;;;;8.20;4.35;;;;;;;;;;5110309;28;20104;-69
2022/04/12 04:05:34;;;;;;;8.70;4.20;;;;;;;;;;5124764;28;20039;-69
2022/04/12 04:08:03;;;;;;;6.18;3.95;;;;;;;;;;5121877;28;20071;-69
2022/04/12 04:10:31;;;;;;;9.50;4.40;;;;;;;;;;5119460;28;20137;-69
2022/04/12 04:13:01;;;;;;;7.38;3.85;;;;;;;;;;5113091;28;20066;-69
2022/04/12 04:15:31;;;;;;;9.02;4.07;;;;;;;;;;5128335;28;20043;-69
2022/04/12 04:18:00;;;;;;;10.93;4.28;;;;;;;;;;5127345;28;20095;-69
2022/04/12 04:20:28;;;;;;;10.57;4.00;;;;;;;;;;5113420;27;20111;-69
2022/04/12 04:22:56;;;;;;;11.55;4.55;;;;;;;;;;5125673;27;20816;-69
2022/04/12 04:25:25;;;;;;;6.63;3.53;;;;;;;;;;5124548;27;20480;-69
2022/04/12 04:27:53;;;;;;;9.63;4.10;;;;;;;;;;5117914;27;20047;-70
2022/04/12 04:30:21;;;;;;;11.40;4.60;;;;;;;;;;5117862;27;20079;-69
2022/04/12 04:32:51;;;;;;;10.70;4.38;;;;;;;;;;5117447;27;20123;-69
2022/04/12 04:35:19;;;;;;;8.63;4.15;;;;;;;;;;5117042;27;20051;-69
2022/04/12 04:37:48;;;;;;;9.02;4.38;;;;;;;;;;5126837;27;20138;-69
2022/04/12 04:40:17;;;;;;;13.15;4.10;;;;;;;;;;5123015;27;20169;-69
2022/04/12 04:42:46;;;;;;;11.57;4.32;;;;;;;;;;5118789;27;20055;-69
2022/04/12 04:45:15;;;;;;;9.95;4.18;;;;;;;;;;5131808;27;20152;-69
2022/04/12 04:47:52;;;;;;;10.40;4.22;;;;;;;;;;5130479;27;20159;-69
2022/04/12 04:50:21;;;;;;;9.77;4.55;;;;;;;;;;5128550;27;20071;-69
2022/04/12 04:52:49;;;;;;;11.13;3.78;;;;;;;;;;5132271;27;20102;-69
2022/04/12 04:55:18;;;;;;;9.52;4.50;;;;;;;;;;5126637;27;20258;-69
2022/04/12 04:57:47;;;;;;;7.63;3.75;;;;;;;;;;5124150;27;20122;-70
2022/04/12 05:00:16;;;;;;;6.65;3.80;;;;;;;;;;5126183;27;20169;-69
2022/04/12 05:02:45;;;;;;;10.80;4.50;;;;;;;;;;5131809;27;20122;-69
2022/04/12 05:05:14;;;;;;;15.55;4.82;;;;;;;;;;5122020;27;20134;-69
2022/04/12 05:07:43;;;;;;;15.43;4.25;;;;;;;;;;5127554;27;20047;-69
2022/04/12 05:10:14;;;;;;;7.93;4.32;;;;;;;;;;5116941;27;20447;-69
2022/04/12 05:12:42;;;;;;;10.10;4.38;;;;;;;;;;5125754;27;20486;-69
2022/04/12 05:15:11;;;;;;;15.23;4.40;;;;;;;;;;5112172;28;20482;-69
2022/04/12 05:17:39;;;;;;;13.70;4.40;;;;;;;;;;5110406;27;20051;-69
2022/04/12 05:20:09;;;;;;;13.00;4.63;;;;;;;;;;5117050;27;20051;-69
2022/04/12 05:22:38;;;;;;;10.20;4.50;;;;;;;;;;5117883;27;20166;-70
2022/04/12 05:25:07;;;;;;;11.73;4.85;;;;;;;;;;5128555;27;20088;-69
2022/04/12 05:27:35;;;;;;;13.05;4.53;;;;;;;;;;5118175;27;20046;-69
2022/04/12 05:30:07;;;;;;;9.85;4.40;;;;;;;;;;5124396;27;20047;-69
2022/04/12 05:32:35;;;;;;;13.07;5.10;;;;;;;;;;5124645;27;20921;-69
2022/04/12 05:35:03;;;;;;;13.85;4.57;;;;;;;;;;5117694;27;20142;-69
2022/04/12 05:37:32;;;;;;;8.40;4.05;;;;;;;;;;5123825;27;20570;-69
2022/04/12 05:40:04;;;;;;;13.15;5.53;;;;;;;;;;5131826;27;20096;-69
2022/04/12 05:42:32;;;;;;;9.35;4.72;;;;;;;;;;5112906;27;20040;-69
2022/04/12 05:45:00;;;;;;;9.77;4.45;;;;;;;;;;5125384;27;20055;-69
2022/04/12 05:47:28;;;;;;;13.63;4.22;;;;;;;;;;5116497;27;20039;-69
2022/04/12 05:49:57;;;;;;;16.67;5.00;;;;;;;;;;5126159;27;20138;-69
2022/04/12 05:52:25;;;;;;;10.68;4.70;;;;;;;;;;5119887;27;20083;-69
2022/04/12 05:54:54;;;;;;;14.23;5.05;;;;;;;;;;5120979;27;20039;-69
2022/04/12 05:57:23;;;;;;;13.45;4.50;;;;;;;;;;5115129;27;20138;-69
2022/04/12 05:59:52;;;;;;;9.77;4.63;;;;;;;;;;5114794;27;20503;-69
2022/04/12 06:02:20;;;;;;;12.32;4.75;;;;;;;;;;5113021;27;20511;-70
2022/04/12 06:04:48;;;;;;;15.98;5.65;;;;;;;;;;5113546;27;20077;-69
2022/04/12 06:07:17;;;;;;;18.95;5.28;;;;;;;;;;5122923;27;20047;-69
2022/04/12 06:09:45;;;;;;;16.65;6.78;;;;;;;;;;5130137;27;20274;-69
2022/04/12 06:12:13;;;;;;;14.90;5.63;;;;;;;;;;5107958;27;20277;-69
2022/04/12 06:14:43;;;;;;;14.90;6.13;;;;;;;;;;5114078;27;20047;-69
2022/04/12 06:17:12;;;;;;;15.68;5.85;;;;;;;;;;5119542;27;20083;-69
2022/04/12 06:19:40;;;;;;;18.25;6.07;;;;;;;;;;5110753;27;20486;-69
2022/04/12 06:22:08;;;;;;;22.45;6.28;;;;;;;;;;5114105;27;20158;-69
2022/04/12 06:24:37;;;;;;;12.95;5.75;;;;;;;;;;5117757;27;20047;-70
2022/04/12 06:27:05;;;;;;;12.90;5.65;;;;;;;;;;5116173;27;20043;-69
2022/04/12 06:29:34;;;;;;;11.88;6.10;;;;;;;;;;5124299;27;20479;-69
2022/04/12 06:32:04;;;;;;;16.63;5.22;;;;;;;;;;5110811;27;20079;-70
2022/04/12 06:34:32;;;;;;;15.30;5.50;;;;;;;;;;5113746;27;20050;-69
2022/04/12 06:37:01;;;;;;;13.30;5.95;;;;;;;;;;5111031;27;20067;-70
2022/04/12 06:39:29;;;;;;;14.25;5.97;;;;;;;;;;5120106;27;20082;-70
2022/04/12 06:41:57;;;;;;;9.52;5.13;;;;;;;;;;5117617;27;20089;-70
2022/04/12 06:44:26;;;;;;;13.65;5.80;;;;;;;;;;5117727;27;20101;-70
2022/04/12 06:46:54;;;;;;;9.13;5.07;;;;;;;;;;5110761;28;20082;-69
2022/04/12 06:49:24;;;;;;;11.98;5.25;;;;;;;;;;5113694;27;20054;-70
2022/04/12 06:51:52;;;;;;;8.27;4.57;;;;;;;;;;5125043;27;20137;-70
2022/04/12 06:54:20;;;;;;;11.30;5.47;;;;;;;;;;5128911;27;20070;-69
2022/04/12 06:56:49;;;;;;;12.45;5.43;;;;;;;;;;5113584;27;20130;-69
2022/04/12 06:59:17;;;;;;;20.20;5.30;;;;;;;;;;5126897;27;20073;-70
2022/04/12 07:01:45;;;;;;;9.05;4.90;;;;;;;;;;5113846;27;20100;-70
2022/04/12 07:04:14;;;;;;;7.43;4.80;;;;;;;;;;5122224;27;20131;-69
2022/04/12 07:06:44;;;;;;;8.50;4.47;;;;;;;;;;5115736;27;20046;-69
2022/04/12 07:09:18;;;;;;;8.25;4.10;;;;;;;;;;5109075;28;20043;-69
2022/04/12 07:11:47;;;;;;;8.33;4.30;;;;;;;;;;5117282;27;20526;-70
2022/04/12 07:14:15;;;;;;;8.65;4.35;;;;;;;;;;5122550;27;20297;-69
2022/04/12 07:16:44;;;;;;;8.77;4.13;;;;;;;;;;5114000;27;20112;-69
2022/04/12 07:19:13;;;;;;;6.57;3.70;;;;;;;;;;5123942;27;20487;-70
2022/04/12 07:21:41;;;;;;;10.07;4.60;;;;;;;;;;5107766;27;20085;-70
2022/04/12 07:24:12;;;;;;;7.20;4.20;;;;;;;;;;5114608;27;20068;-71
2022/04/12 07:26:41;;;;;;;11.55;5.00;;;;;;;;;;5117296;27;20050;-70
2022/04/12 07:29:09;;;;;;;12.43;4.32;;;;;;;;;;5117395;27;20082;-70
2022/04/12 07:31:38;;;;;;;12.23;4.35;;;;;;;;;;5107098;28;20052;-70
2022/04/12 07:34:07;;;;;;;6.20;3.90;;;;;;;;;;5116071;27;20054;-70
2022/04/12 07:36:39;;;;;;;9.57;4.00;;;;;;;;;;5114994;27;20057;-70
2022/04/12 07:39:16;;;;;;;9.45;4.22;;;;;;;;;;5112308;27;20054;-69
2022/04/12 07:41:45;;;;;;;7.60;4.20;;;;;;;;;;5125338;27;20155;-70
2022/04/12 07:44:14;;;;;;;12.23;4.30;;;;;;;;;;5120126;27;20047;-70
2022/04/12 07:46:43;;;;;;;7.90;3.70;;;;;;;;;;5119535;27;20128;-70
2022/04/12 07:49:12;;;;;;;7.35;3.58;;;;;;;;;;5112985;28;20134;-70
2022/04/12 07:51:41;;;;;;;6.43;3.80;;;;;;;;;;5121957;28;20059;-70
2022/04/12 07:54:10;;;;;;;6.75;3.72;;;;;;;;;;5119539;28;20763;-70
2022/04/12 07:56:40;;;;;;;7.90;2.90;;;;;;;;;;5115529;27;20035;-70
2022/04/12 07:59:10;;;;;;;5.82;3.08;;;;;;;;;;5126392;27;20039;-70
2022/04/12 08:01:39;;;;;;;9.75;3.33;;;;;;;;;;5114700;27;20138;-70
2022/04/12 08:04:07;;;;;;;6.03;3.28;;;;;;;;;;5130296;27;20039;-71
2022/04/12 08:06:38;;;;;;;4.13;2.15;;;;;;;;;;5119839;27;20151;-70
2022/04/12 08:09:07;;;;;;;4.43;2.65;;;;;;;;;;5119158;27;20050;-70
2022/04/12 08:11:35;;;;;;;5.28;2.28;;;;;;;;;;5124122;27;20051;-70
2022/04/12 08:14:05;;;;;;;5.50;2.70;;;;;;;;;;5124128;27;20082;-68
2022/04/12 08:16:34;;;;;;;4.03;2.22;;;;;;;;;;5120887;27;20040;-68
2022/04/12 08:19:03;;;;;;;6.15;2.70;;;;;;;;;;5120295;27;20418;-68
2022/04/12 08:21:35;;;;;;;3.92;2.30;;;;;;;;;;5118208;27;20071;-68
2022/04/12 08:24:04;;;;;;;6.70;2.97;;;;;;;;;;5131843;27;20151;-68
2022/04/12 08:26:32;;;;;;;3.75;2.50;;;;;;;;;;5118156;27;20108;-68
2022/04/12 08:29:01;;;;;;;4.00;2.53;;;;;;;;;;5114369;27;20047;-68
2022/04/12 08:31:30;;;;;;;7.38;2.67;;;;;;;;;;5130062;27;20043;-70
2022/04/12 08:33:59;;;;;;;4.13;2.60;;;;;;;;;;5125730;27;20068;-70
2022/04/12 08:36:28;;;;;;;6.25;2.58;;;;;;;;;;5116686;27;20285;-70
2022/04/12 08:38:56;;;;;;;5.53;2.70;;;;;;;;;;5124385;27;20368;-70
2022/04/12 08:41:26;;;;;;;3.30;2.22;;;;;;;;;;5120897;27;20086;-70
2022/04/12 08:43:56;;;;;;;5.10;2.40;;;;;;;;;;5118021;27;20119;-70
2022/04/12 08:46:26;;;;;;;5.30;2.53;;;;;;;;;;5128739;27;20154;-70
2022/04/12 08:48:57;;;;;;;3.97;2.60;;;;;;;;;;5118672;27;20050;-70
2022/04/12 08:51:27;;;;;;;5.10;2.58;;;;;;;;;;5122797;27;20118;-70
2022/04/12 08:53:57;;;;;;;4.47;3.15;;;;;;;;;;5119968;27;20427;-70
2022/04/12 08:56:27;;;;;;;4.10;2.75;;;;;;;;;;5121825;27;20090;-71
2022/04/12 08:58:56;;;;;;;4.70;2.90;;;;;;;;;;5120996;27;20051;-70
2022/04/12 09:01:38;;;;;;;3.67;2.60;;;;;;;;;;5124121;27;20145;-70
2022/04/12 09:04:08;;;;;;;5.65;3.38;;;;;;;;;;5118934;27;20058;-70
2022/04/12 09:06:37;;;;;;;5.05;3.10;;;;;;;;;;5123584;27;20051;-70
2022/04/12 09:09:12;;;;;;;5.95;3.00;;;;;;;;;;5114650;27;20071;-70
2022/04/12 09:11:40;;;;;;;;;;;;;;;;;;5122888;27;20166;-70
2022/04/12 09:14:13;;;;;;;4.15;3.10;;;;;;;;;;5131987;27;19919;-70
2022/04/12 09:16:44;;;;;;;4.82;3.25;;;;;;;;;;5121181;27;20039;-69
2022/04/12 09:19:14;;;;;;;5.43;3.05;;;;;;;;;;5125002;27;20100;-70
2022/04/12 09:21:46;;;;;;;5.22;2.83;;;;;;;;;;5121944;27;20043;-71
2022/04/12 09:24:21;;;;;;;5.75;2.97;;;;;;;;;;5124954;27;20104;-70
2022/04/12 09:26:56;;;;;;;4.13;2.63;;;;;;;;;;5117971;27;20126;-70
2022/04/12 09:29:24;;;;;;;;;;;;;;;;;;5127812;27;20054;-70
2022/04/12 09:31:56;;;;;;;7.47;2.78;;;;;;;;;;5113146;27;19935;-70
2022/04/12 09:34:28;;;;;;;5.45;2.70;;;;;;;;;;5111509;27;20130;-70
2022/04/12 09:37:17;;;;;;;4.80;2.70;;;;;;;;;;5127733;27;20127;-70
2022/04/12 09:39:47;;;;;;;4.25;3.08;;;;;;;;;;5128118;27;20451;-71
2022/04/12 09:42:16;;;;;;;6.13;2.55;;;;;;;;;;5129198;27;20555;-70
2022/04/12 09:44:44;;;;;;;3.80;2.80;;;;;;;;;;5124493;27;20043;-70
2022/04/12 09:47:14;;;;;;;3.80;2.78;;;;;;;;;;5124713;27;20047;-72
2022/04/12 09:49:48;;;;;;;3.85;2.28;;;;;;;;;;5113808;27;20070;-71
2022/04/12 09:52:16;;;;;;;4.30;2.60;;;;;;;;;;5118751;27;20440;-71
2022/04/12 09:54:44;;;;;;;4.47;2.50;;;;;;;;;;5131225;27;20475;-70
2022/04/12 09:57:13;;;;;;;3.83;2.55;;;;;;;;;;5120521;27;20055;-70
2022/04/12 09:59:48;;;;;;;4.28;2.70;;;;;;;;;;5130707;27;20130;-70
2022/04/12 10:02:17;;;;;;;5.88;2.80;;;;;;;;;;5115719;27;20043;-71
2022/04/12 10:04:48;;;;;;;7.03;2.95;;;;;;;;;;5117908;27;20115;-71
2022/04/12 10:07:18;;;;;;;5.57;2.70;;;;;;;;;;5118035;27;20690;-70
2022/04/12 10:09:46;;;;;;;3.83;2.83;;;;;;;;;;5111391;27;20490;-71
2022/04/12 10:12:15;;;;;;;4.97;2.40;;;;;;;;;;5114899;27;20078;-71
2022/04/12 10:14:44;;;;;;;4.32;2.58;;;;;;;;;;5131109;27;20119;-72
2022/04/12 10:17:13;;;;;;;4.43;2.53;;;;;;;;;;5129764;27;20134;-71
2022/04/12 10:19:42;;;;;;;2.85;2.20;;;;;;;;;;5129219;27;20124;-71
2022/04/12 10:22:12;;;;;;;3.30;2.00;;;;;;;;;;5130732;27;20373;-71
2022/04/12 10:24:41;;;;;;;3.38;2.10;;;;;;;;;;5130540;27;20476;-71
2022/04/12 10:27:09;;;;;;;3.67;2.20;;;;;;;;;;5129548;27;20467;-71
2022/04/12 10:29:38;;;;;;;2.95;2.20;;;;;;;;;;5129821;27;20055;-71
2022/04/12 10:32:06;;;;;;;4.25;2.63;;;;;;;;;;5124851;27;20482;-71
2022/04/12 10:35:00;;;;;;;4.55;2.40;;;;;;;;;;5124596;27;20139;-72
2022/04/12 10:37:30;;;;;;;3.08;2.40;;;;;;;;;;5123373;27;20047;-71
2022/04/12 10:40:19;;;;;;;3.17;2.13;;;;;;;;;;5130422;27;20058;-71
2022/04/12 10:42:56;;;;;;;3.63;2.40;;;;;;;;;;5129944;27;20047;-71
2022/04/12 10:45:32;;;;;;;4.50;2.25;;;;;;;;;;5130133;27;20058;-71
2022/04/12 10:48:01;;;;;;;3.72;2.75;;;;;;;;;;5127402;27;20044;-71
2022/04/12 10:50:40;;;;;;;4.68;2.80;;;;;;;;;;5117692;27;20090;-71
2022/04/12 10:53:10;;;;;;;6.10;2.53;;;;;;;;;;5113263;27;20097;-71
2022/04/12 10:55:39;;;;;;;6.18;2.40;;;;;;;;;;5111785;27;20463;-71
2022/04/12 10:58:16;;;;;;;4.10;2.65;;;;;;;;;;5113325;27;20168;-71
2022/04/12 11:00:47;;;;;;;3.75;2.40;;;;;;;;;;5124949;27;20126;-71
2022/04/12 11:03:16;;;;;;;4.88;2.38;;;;;;;;;;5125425;27;20054;-71
2022/04/12 11:06:07;;;;;;;4.47;2.35;;;;;;;;;;5130362;27;20126;-71
2022/04/12 11:08:47;;;;;;;3.72;2.90;;;;;;;;;;5118622;27;20067;-71
2022/04/12 11:11:26;;;;;;;4.03;2.22;;;;;;;;;;5123851;27;20055;-71
2022/04/12 11:13:56;;;;;;;3.53;2.83;;;;;;;;;;5132668;27;20092;-71
2022/04/12 11:16:27;;;;;;;3.17;2.50;;;;;;;;;;5128532;27;20438;-71
2022/04/12 11:18:56;;;;;;;4.72;2.50;;;;;;;;;;5130809;27;20067;-71
2022/04/12 11:21:26;;;;;;;3.45;2.28;;;;;;;;;;5129156;27;20043;-71
2022/04/12 11:24:01;;;;;;;4.78;2.40;;;;;;;;;;5123199;27;20040;-71
2022/04/12 11:26:37;;;;;;;3.80;2.45;;;;;;;;;;5118688;27;20057;-71
2022/04/12 11:29:09;;;;;;;3.50;1.98;;;;;;;;;;5128834;27;20451;-71
2022/04/12 11:31:41;;;;;;;3.45;2.67;;;;;;;;;;5129345;27;20043;-71
2022/04/12 11:34:10;;;;;;;3.80;2.45;;;;;;;;;;5129721;27;20074;-71
2022/04/12 11:36:39;;;;;;;2.65;2.00;;;;;;;;;;5118621;27;20050;-71
2022/04/12 11:39:10;;;;;;;4.53;2.40;;;;;;;;;;5108308;28;20047;-68
2022/04/12 11:41:38;;;;;;;3.42;2.03;;;;;;;;;;5129359;27;20118;-69
2022/04/12 11:44:07;;;;;;;4.38;2.60;;;;;;;;;;5127969;27;20054;-69
2022/04/12 11:46:36;;;;;;;3.20;2.25;;;;;;;;;;5129211;27;20104;-69
2022/04/12 11:49:06;;;;;;;3.78;2.08;;;;;;;;;;5128885;27;20096;-69
2022/04/12 11:51:41;;;;;;;3.17;2.58;;;;;;;;;;5123740;28;20051;-70
2022/04/12 11:54:25;;;;;;;5.65;2.72;;;;;;;;;;5129463;28;20428;-71
2022/04/12 11:56:55;;;;;;;3.05;2.40;;;;;;;;;;5127857;28;20074;-71
2022/04/12 11:59:23;;;;;;;16.75;3.40;;;;;;;;;;5127352;28;20577;-71
2022/04/12 12:01:53;;;;;;;4.60;2.28;;;;;;;;;;5110994;28;20079;-71
2022/04/12 12:04:22;;;;;;;3.25;2.33;;;;;;;;;;5110246;28;20054;-71
2022/04/12 12:06:57;;;;;;;4.68;2.47;;;;;;;;;;5129036;28;20511;-70
2022/04/12 12:09:25;;;;;;;;;;;;;;;;;;5110700;28;20093;-70
2022/04/12 12:11:53;;;;;;;3.72;2.65;;;;;;;;;;5126382;28;19972;-70
2022/04/12 12:14:23;;;;;;;3.83;2.28;;;;;;;;;;5129507;28;21008;-70
2022/04/12 12:17:04;;;;;;;3.63;2.85;;;;;;;;;;5127799;28;20479;-70
2022/04/12 12:19:38;;;;;;;4.70;2.35;;;;;;;;;;5121279;28;20066;-71
2022/04/12 12:22:07;;;;;;;4.35;2.15;;;;;;;;;;5126440;28;20047;-70
2022/04/12 12:24:37;;;;;;;4.63;2.50;;;;;;;;;;5129349;28;20047;-71
2022/04/12 12:27:07;;;;;;;4.20;2.50;;;;;;;;;;5127594;28;20448;-71
2022/04/12 12:29:43;;;;;;;4.07;2.53;;;;;;;;;;5128094;28;20482;-71
2022/04/12 12:32:17;;;;;;;4.43;2.83;;;;;;;;;;5129015;28;20100;-70
2022/04/12 12:34:46;;;;;;;5.20;2.42;;;;;;;;;;5118447;28;20044;-72
2022/04/12 12:37:15;;;;;;;5.88;3.00;;;;;;;;;;5111174;28;20090;-71
2022/04/12 12:39:44;;;;;;;4.53;2.78;;;;;;;;;;5110000;28;20051;-71
2022/04/12 12:42:14;;;;;;;3.92;2.42;;;;;;;;;;5129660;27;20050;-71
2022/04/12 12:44:43;;;;;;;3.08;2.38;;;;;;;;;;5133905;27;20071;-70
2022/04/12 12:47:12;;;;;;;4.45;2.20;;;;;;;;;;5128745;27;20078;-70
2022/04/12 12:49:41;;;;;;;3.83;2.08;;;;;;;;;;5132215;27;20083;-71
2022/04/12 12:52:10;;;;;;;4.05;2.70;;;;;;;;;;5128090;27;20043;-71
2022/04/12 12:54:39;;;;;;;4.53;2.60;;;;;;;;;;5132963;27;20099;-71
2022/04/12 12:57:09;;;;;;;3.38;2.95;;;;;;;;;;5132557;27;20055;-70
2022/04/12 12:59:39;;;;;;;3.72;2.42;;;;;;;;;;5129650;27;20045;-71
2022/04/12 13:02:10;;;;;;;5.68;2.42;;;;;;;;;;5127838;27;20047;-68
2022/04/12 13:04:41;;;;;;;5.20;2.30;;;;;;;;;;5128065;27;20402;-68
2022/04/12 13:07:11;;;;;;;3.42;2.42;;;;;;;;;;5125504;27;20156;-68
2022/04/12 13:09:43;;;;;;;3.35;1.80;;;;;;;;;;5112050;28;20066;-71
2022/04/12 13:12:12;;;;;;;6.03;2.70;;;;;;;;;;5113202;27;20621;-71
2022/04/12 13:14:42;;;;;;;3.60;2.22;;;;;;;;;;5120980;27;20055;-71
2022/04/12 13:17:13;;;;;;;3.35;2.22;;;;;;;;;;5126842;27;20059;-71
2022/04/12 13:19:42;;;;;;;4.55;2.38;;;;;;;;;;5132039;27;20526;-71
2022/04/12 13:22:12;;;;;;;5.35;2.63;;;;;;;;;;5131358;27;20146;-71
2022/04/12 13:24:41;;;;;;;4.80;3.03;;;;;;;;;;5130424;27;20072;-71
2022/04/12 13:27:09;;;;;;;4.90;2.47;;;;;;;;;;5113799;27;20069;-71
2022/04/12 13:29:38;;;;;;;7.75;2.63;;;;;;;;;;5111563;28;20051;-70
2022/04/12 13:32:07;;;;;;;3.58;2.30;;;;;;;;;;5113240;27;20698;-70
2022/04/12 13:34:37;;;;;;;4.38;2.10;;;;;;;;;;5123044;27;20131;-70
2022/04/12 13:37:06;;;;;;;4.80;2.60;;;;;;;;;;5122954;27;20049;-71
2022/04/12 13:39:35;;;;;;;3.67;2.25;;;;;;;;;;5125551;27;20102;-70
2022/04/12 13:42:05;;;;;;;3.72;2.15;;;;;;;;;;5130306;27;20044;-71
2022/04/12 13:44:34;;;;;;;4.30;2.10;;;;;;;;;;5119336;27;20118;-70
2022/04/12 13:47:03;;;;;;;3.80;2.40;;;;;;;;;;5111376;27;20426;-71
2022/04/12 13:49:32;;;;;;;3.67;2.30;;;;;;;;;;5111497;27;20403;-71
2022/04/12 13:52:03;;;;;;;3.97;3.35;;;;;;;;;;5116057;27;20487;-71
2022/04/12 13:54:32;;;;;;;4.40;2.72;;;;;;;;;;5124884;27;20133;-70
2022/04/12 13:57:00;;;;;;;4.00;2.03;;;;;;;;;;5137019;27;20055;-71
2022/04/12 13:59:29;;;;;;;4.18;1.85;;;;;;;;;;5119810;27;20051;-71
2022/04/12 14:01:58;;;;;;;3.45;2.15;;;;;;;;;;5125690;27;20078;-70
2022/04/12 14:04:27;;;;;;;4.50;2.03;;;;;;;;;;5130782;27;20055;-71
2022/04/12 14:06:56;;;;;;;2.45;1.30;;;;;;;;;;5131340;27;20367;-71
2022/04/12 14:09:28;;;;;;;2.35;1.77;;;;;;;;;;5114815;27;20138;-70
2022/04/12 14:11:57;;;;;;;3.08;1.70;;;;;;;;;;5126543;27;20510;-71
2022/04/12 14:14:26;;;;;;;3.63;2.00;;;;;;;;;;5131174;27;20384;-71
2022/04/12 14:16:55;;;;;;;6.30;1.67;;;;;;;;;;5128749;27;20440;-71
2022/04/12 14:19:23;;;;;;;3.67;1.80;;;;;;;;;;5114797;27;20124;-71
2022/04/12 14:21:54;;;;;;;3.63;1.63;;;;;;;;;;5126086;27;20039;-71
2022/04/12 14:24:22;;;;;;;1.70;1.35;;;;;;;;;;5118785;27;20479;-71
2022/04/12 14:26:52;;;;;;;3.72;1.50;;;;;;;;;;5131005;27;20108;-71
2022/04/12 14:29:20;;;;;;;1.90;1.40;;;;;;;;;;5126016;27;20127;-70
2022/04/12 14:31:49;;;;;;;2.80;1.42;;;;;;;;;;5130684;27;20096;-70
2022/04/12 14:34:18;;;;;;;2.22;1.80;;;;;;;;;;5128357;27;20043;-71
2022/04/12 14:36:47;;;;;;;4.05;1.75;;;;;;;;;;5121437;27;20561;-71
2022/04/12 14:39:15;;;;;;;2.15;1.50;;;;;;;;;;5129368;27;20122;-70
2022/04/12 14:41:44;;;;;;;1.92;1.42;;;;;;;;;;5125782;27;20043;-71
2022/04/12 14:44:16;;;;;;;3.55;1.55;;;;;;;;;;5125129;27;20180;-71
2022/04/12 14:46:45;;;;;;;2.45;1.40;;;;;;;;;;5122289;27;20043;-71
2022/04/12 14:49:14;;;;;;;3.47;1.40;;;;;;;;;;5125585;27;20053;-71
2022/04/12 14:51:43;;;;;;;1.98;1.30;;;;;;;;;;5111032;27;20433;-71
2022/04/12 14:54:12;;;;;;;1.50;1.30;;;;;;;;;;5125590;27;20099;-71
2022/04/12 14:56:40;;;;;;;2.35;1.40;;;;;;;;;;5115122;27;20051;-71
2022/04/12 14:59:09;;;;;;;2.55;1.90;;;;;;;;;;5121617;27;20075;-70